CheckWX is a tool to help pilots better visualize weather data.  It is not intended as a substitute for an official pre-flight weather briefing.

13:55:35 UTC

KBID METAR
Block Island State Airport
Block Island, Rhode Island, USA
Current

27 mins ago

KBID 261329Z AUTO 09012G19KT 10SM -RA SCT005 BKN035 OVC090 09/08 A2984 RMK AO2 LTG DSNT E RAB23
Observed
Apr-26 @ 13:29 UTC
Wind
  • 090° at 12 KTS
  • Gusting to 19 KTS
Visibility
10 SM
Flight Rules
VFR
Conditions
Light Rain
Cloud Levels
  • Scattered at 500' AGL
  • Broken at 3,500' AGL
  • Overcast at 9,000' AGL
Temperature
C / 48°F
Dewpoint
C / 46°F
Humidity
94%
Altimeter
29.84" Hg
Pressure
1010.52 hPa
Previous

39 mins ago

KBID 261317Z AUTO 09012G19KT 9SM BKN005 BKN032 OVC095 09/08 RMK AO2 LTG DSNT E AND SE CIG 004V020 $
Observed
Apr-26 @ 13:17 UTC
Wind
  • 090° at 12 KTS
  • Gusting to 19 KTS
Visibility
9 SM
Flight Rules
IFR
Cloud Levels
  • Broken at 500' AGL
  • Broken at 3,200' AGL
  • Overcast at 9,500' AGL
Temperature
C / 48°F
Dewpoint
C / 46°F
Humidity
94%
Previous

60 mins ago

KBID 261256Z AUTO 10014G18KT 10SM FEW007 BKN080 OVC100 09/08 A2986 RMK AO2 LTG DSNT SE TSE1158B00E08RAE46 SLP115 P0009 T00940083
Observed
Apr-26 @ 12:56 UTC
Wind
  • 100° at 14 KTS
  • Gusting to 18 KTS
Visibility
10 SM
Flight Rules
VFR
Cloud Levels
  • Few at 700' AGL
  • Broken at 8,000' AGL
  • Overcast at 10,000' AGL
Temperature
C / 48°F
Dewpoint
C / 46°F
Humidity
94%
Altimeter
29.86" Hg
Pressure
1011.22 hPa
Current Rain
0.09"